Terminal Aerodrome Forecast
Issued by NWS

Home | Current Version | Previous Version | Graphics & Text | Print | Product List | Glossary On
Versions: 1 2 3 4 5 6 7 8 9 10 11 12 13
094
FTUS43 KBIS 292333
TAFJMS
TAF
KJMS 292333Z 3000/3024 10012KT P6SM SCT150
     FM300200 06008KT P6SM SCT250
     FM301400 06012KT P6SM FEW250=

USA.gov is the U.S. government's official web portal to all federal, state and local government web resources and services.